General Rodriguez, Argentina
Current Conditions -  °F | °C
As of 9:00 AM on Monday 22 Dec 2014 (Local Time) from SADF Reporting Station
Few Clouds Few Clouds  
Wind Chill: 64°   Ceiling: Unl
Heat Index: 64°   Visibility: 6mi
Dew Point: 50°   Wind: 6mph
Humidity: 59%   Direction: 200°SSW
Pressure: 30.06"   Gusts: NA
Location:  34.6°S, 58.95°W
Report Text: SADF 221200Z 20005KT 140V270 9999 FEW035 18/10 Q1018
Loading
Personal Weather Stations






























Interactive Weather Map New forecast layout! Learn more

10-Day Weather Forecast

Advertisements
Track Severe Weather on mobile